HNLMS Pelikaan — PAKU — position and weather

sailwx.info

Track history (hours):
 
Tides and Currents Weather Stations Pressure Air Temp Water Temp Dewpoint Dewpoint Depression Visibility Wind Speed Wind Dir Waves Ship Positions

HNLMS Pelikaan

Last reported at 2018-Feb-15 06:23 UTC. Time now 2018-Apr-27 02:40 UTC.
Position N 11°44' W 073°44'.
Warning: this ship's position is months out of date.

Length 65 m.

Type: Military. MMSI: 244362000.

Date/timePositionNaut miles runAvg speedWind from/ knotsBaromVisibWave heightAir tempDewpointWater temp
2018-Feb-15 06:23N 11°44' W 073°44'3 7.0
2018-Feb-15 05:59N 11°43' W 073°47'7 6.6
2018-Feb-15 04:58N 11°40' W 073°53'62 5.5
2018-Feb-14 17:41N 11°15' W 074°51'1 5.1
2018-Feb-14 17:30N 11°15' W 074°52'2 4.6
2018-Feb-14 17:00N 11°14' W 074°54'3 4.1
2018-Feb-14 16:22N 11°13' W 074°56'2 4.1
2018-Feb-14 15:59N 11°12' W 074°58'3 4.8
2018-Feb-14 15:27N 11°11' W 075°00'1 2.7
2018-Feb-14 14:54N 11°10' W 075°02'1 1.6
2018-Feb-14 14:23N 11°10' W 075°02'4 4.0
2018-Feb-14 13:28N 11°08' W 075°05'  
Track history (hours):
 
Tides and Currents Weather Stations Pressure Air Temp Water Temp Dewpoint Dewpoint Depression Visibility Wind Speed Wind Dir Waves Ship Positions

HNLMS Pelikaan

Last reported at 2018-Feb-15 06:23 UTC. Time now 2018-Apr-27 02:40 UTC.
Position N 11°44' W 073°44'.
Warning: this ship's position is months out of date.

Length 65 m.

Type: Military. MMSI: 244362000.

Date/timePositionNaut miles runAvg speedWind from/ knotsBaromVisibWave heightAir tempDewpointWater temp
2018-Feb-15 06:23N 11°44' W 073°44'3 7.0
2018-Feb-15 05:59N 11°43' W 073°47'7 6.6
2018-Feb-15 04:58N 11°40' W 073°53'62 5.5
2018-Feb-14 17:41N 11°15' W 074°51'1 5.1
2018-Feb-14 17:30N 11°15' W 074°52'2 4.6
2018-Feb-14 17:00N 11°14' W 074°54'3 4.1
2018-Feb-14 16:22N 11°13' W 074°56'2 4.1
2018-Feb-14 15:59N 11°12' W 074°58'3 4.8
2018-Feb-14 15:27N 11°11' W 075°00'1 2.7
2018-Feb-14 14:54N 11°10' W 075°02'1 1.6
2018-Feb-14 14:23N 11°10' W 075°02'4 4.0
2018-Feb-14 13:28N 11°08' W 075°05'  

Dump ship's entire track history